Presidente Peron Airport
SAZN : now visible

Airfield :











YOU CAN JOIN US ON...

 
LOGIN :

Register | Disclaimer

   EN    FR    IT 

 









Legend :    VFR   Marginal VFR   IFR   Intensive IFR   Very Intensive IFR
Visi :
Ceiling :
>= 8 km
>= 3000ft
5 to 8 km
1000 to 3000 ft
1500m to 5 km
500 to 1000 ft
800 to 1500m
200 to 500 ft
< 800m
< 200 ft
Symbols :   Thunderstorms  Fog  Heavy snow  Heavy precipitations  Wind > 20 kt






- Airport Elevation : 895 ft
- IATA code : NQN


SAZN - Presidente Peron

CURRENT METAR :
  • 021300Z 32003KT CAVOK 12/05 Q1028

EXPIRED METARs :
  • 021200Z 29004KT CAVOK 08/04 Q1028
  • 021100Z 00000KT CAVOK 05/02 Q1028
  • 021000Z 00000KT CAVOK 05/03 Q1028

TAF TAF SAZN
Valid from the 02 at 12:00 until the 03 at 12:00 UTC


021100Z 0212/0312 VRB03KT CAVOK TX22/0219Z TN06/0310Z
BECMG 0218/0220 05005KT



MET'MAP, your aeronautical weather chart ! - Copyright ORBIFLY December 2007 - Disclaimer

ORBIFLY MET'MAP TEAM :

Programming & Development : Alexandra Zaïnal
Concept & original design : Baudouin d'Aumeries
Assistance for programming : Marc-Olivier Méhu
Technical & hardware support : Manuel Goepfert

Contact : metmap@orbifly.com




SOURCES & CREDITS :

   NOAA       Earth
Advisory